sensor_id;sensor_type;location;lat;lon;timestamp;P1;durP1;ratioP1;P2;durP2;ratioP2
53959;SDS011;39866;48.638;-2.020;2023-03-17T00:01:15;10.48;;;3.95;;
53959;SDS011;39866;48.638;-2.020;2023-03-17T00:03:41;10.35;;;3.90;;
53959;SDS011;39866;48.638;-2.020;2023-03-17T00:06:30;10.40;;;4.22;;
53959;SDS011;39866;48.638;-2.020;2023-03-17T00:08:55;10.63;;;3.80;;
53959;SDS011;39866;48.638;-2.020;2023-03-17T00:11:21;11.40;;;4.25;;
53959;SDS011;39866;48.638;-2.020;2023-03-17T00:13:47;9.85;;;4.10;;
53959;SDS011;39866;48.638;-2.020;2023-03-17T00:16:16;11.20;;;3.72;;
53959;SDS011;39866;48.638;-2.020;2023-03-17T00:18:44;9.60;;;3.75;;
53959;SDS011;39866;48.638;-2.020;2023-03-17T00:21:14;9.70;;;3.85;;
53959;SDS011;39866;48.638;-2.020;2023-03-17T00:23:44;8.25;;;4.15;;
53959;SDS011;39866;48.638;-2.020;2023-03-17T00:26:14;9.25;;;3.40;;
53959;SDS011;39866;48.638;-2.020;2023-03-17T00:28:40;10.02;;;4.15;;
53959;SDS011;39866;48.638;-2.020;2023-03-17T00:31:10;11.63;;;4.03;;
53959;SDS011;39866;48.638;-2.020;2023-03-17T00:33:38;8.23;;;3.70;;
53959;SDS011;39866;48.638;-2.020;2023-03-17T00:36:04;9.40;;;4.38;;
53959;SDS011;39866;48.638;-2.020;2023-03-17T00:38:31;9.90;;;4.07;;
53959;SDS011;39866;48.638;-2.020;2023-03-17T00:40:57;8.75;;;3.78;;
53959;SDS011;39866;48.638;-2.020;2023-03-17T00:43:22;9.18;;;3.55;;
53959;SDS011;39866;48.638;-2.020;2023-03-17T00:45:47;10.45;;;4.28;;
53959;SDS011;39866;48.638;-2.020;2023-03-17T00:48:17;11.35;;;4.20;;
53959;SDS011;39866;48.638;-2.020;2023-03-17T00:50:44;9.40;;;3.72;;
53959;SDS011;39866;48.638;-2.020;2023-03-17T00:53:14;13.27;;;4.40;;
53959;SDS011;39866;48.638;-2.020;2023-03-17T00:55:42;8.75;;;3.50;;
53959;SDS011;39866;48.638;-2.020;2023-03-17T00:58:13;8.25;;;3.42;;
53959;SDS011;39866;48.638;-2.020;2023-03-17T01:00:43;11.60;;;3.95;;
53959;SDS011;39866;48.638;-2.020;2023-03-17T01:03:10;8.07;;;2.92;;
53959;SDS011;39866;48.638;-2.020;2023-03-17T01:05:37;9.68;;;3.35;;
53959;SDS011;39866;48.638;-2.020;2023-03-17T01:08:03;9.88;;;3.92;;
53959;SDS011;39866;48.638;-2.020;2023-03-17T01:10:28;10.93;;;4.10;;
53959;SDS011;39866;48.638;-2.020;2023-03-17T01:12:55;11.27;;;4.07;;
53959;SDS011;39866;48.638;-2.020;2023-03-17T01:15:24;9.85;;;4.10;;
53959;SDS011;39866;48.638;-2.020;2023-03-17T01:17:54;13.13;;;4.68;;
53959;SDS011;39866;48.638;-2.020;2023-03-17T01:20:25;10.90;;;4.32;;
53959;SDS011;39866;48.638;-2.020;2023-03-17T01:22:55;10.48;;;4.35;;
53959;SDS011;39866;48.638;-2.020;2023-03-17T01:25:21;9.05;;;4.15;;
53959;SDS011;39866;48.638;-2.020;2023-03-17T01:27:47;10.50;;;4.60;;
53959;SDS011;39866;48.638;-2.020;2023-03-17T01:32:47;9.13;;;3.78;;
53959;SDS011;39866;48.638;-2.020;2023-03-17T01:35:13;8.23;;;4.07;;
53959;SDS011;39866;48.638;-2.020;2023-03-17T01:37:39;11.85;;;4.25;;
53959;SDS011;39866;48.638;-2.020;2023-03-17T01:40:06;9.13;;;4.03;;
53959;SDS011;39866;48.638;-2.020;2023-03-17T01:42:33;10.13;;;4.40;;
53959;SDS011;39866;48.638;-2.020;2023-03-17T01:45:04;12.13;;;4.50;;
53959;SDS011;39866;48.638;-2.020;2023-03-17T01:47:32;10.38;;;3.78;;
53959;SDS011;39866;48.638;-2.020;2023-03-17T01:49:58;10.85;;;4.30;;
53959;SDS011;39866;48.638;-2.020;2023-03-17T01:52:29;12.95;;;4.07;;
53959;SDS011;39866;48.638;-2.020;2023-03-17T01:57:32;7.78;;;3.72;;
53959;SDS011;39866;48.638;-2.020;2023-03-17T02:00:06;11.27;;;3.72;;
53959;SDS011;39866;48.638;-2.020;2023-03-17T02:02:37;10.32;;;4.10;;
53959;SDS011;39866;48.638;-2.020;2023-03-17T02:05:06;9.18;;;4.25;;
53959;SDS011;39866;48.638;-2.020;2023-03-17T02:07:35;10.60;;;4.40;;
53959;SDS011;39866;48.638;-2.020;2023-03-17T02:10:00;9.15;;;3.60;;
53959;SDS011;39866;48.638;-2.020;2023-03-17T02:12:28;9.32;;;3.92;;
53959;SDS011;39866;48.638;-2.020;2023-03-17T02:14:54;9.60;;;4.18;;
53959;SDS011;39866;48.638;-2.020;2023-03-17T02:17:21;9.68;;;3.80;;
53959;SDS011;39866;48.638;-2.020;2023-03-17T02:19:47;10.50;;;4.25;;
53959;SDS011;39866;48.638;-2.020;2023-03-17T02:22:14;7.28;;;3.70;;
53959;SDS011;39866;48.638;-2.020;2023-03-17T02:24:42;9.13;;;3.90;;
53959;SDS011;39866;48.638;-2.020;2023-03-17T02:27:23;8.57;;;3.80;;
53959;SDS011;39866;48.638;-2.020;2023-03-17T02:29:53;8.45;;;4.05;;
53959;SDS011;39866;48.638;-2.020;2023-03-17T02:32:19;7.53;;;3.83;;
53959;SDS011;39866;48.638;-2.020;2023-03-17T02:34:45;7.45;;;3.60;;
53959;SDS011;39866;48.638;-2.020;2023-03-17T02:37:12;8.60;;;3.70;;
53959;SDS011;39866;48.638;-2.020;2023-03-17T02:39:39;8.02;;;3.80;;
53959;SDS011;39866;48.638;-2.020;2023-03-17T02:42:05;9.40;;;3.75;;
53959;SDS011;39866;48.638;-2.020;2023-03-17T02:44:31;8.45;;;3.80;;
53959;SDS011;39866;48.638;-2.020;2023-03-17T02:46:57;7.03;;;3.38;;
53959;SDS011;39866;48.638;-2.020;2023-03-17T02:49:23;9.68;;;3.47;;
53959;SDS011;39866;48.638;-2.020;2023-03-17T02:51:49;9.88;;;3.80;;
53959;SDS011;39866;48.638;-2.020;2023-03-17T02:54:15;9.43;;;3.92;;
53959;SDS011;39866;48.638;-2.020;2023-03-17T02:56:41;12.25;;;4.28;;
53959;SDS011;39866;48.638;-2.020;2023-03-17T02:59:07;11.50;;;3.97;;
53959;SDS011;39866;48.638;-2.020;2023-03-17T03:01:32;10.27;;;3.97;;
53959;SDS011;39866;48.638;-2.020;2023-03-17T03:03:58;8.05;;;4.07;;
53959;SDS011;39866;48.638;-2.020;2023-03-17T03:06:23;7.65;;;4.03;;
53959;SDS011;39866;48.638;-2.020;2023-03-17T03:08:49;10.30;;;4.18;;
53959;SDS011;39866;48.638;-2.020;2023-03-17T03:11:15;10.65;;;4.22;;
53959;SDS011;39866;48.638;-2.020;2023-03-17T03:13:40;9.48;;;4.13;;
53959;SDS011;39866;48.638;-2.020;2023-03-17T03:16:06;8.35;;;4.00;;
53959;SDS011;39866;48.638;-2.020;2023-03-17T03:18:33;10.23;;;4.25;;
53959;SDS011;39866;48.638;-2.020;2023-03-17T03:20:58;9.63;;;4.03;;
53959;SDS011;39866;48.638;-2.020;2023-03-17T03:23:24;10.38;;;3.95;;
53959;SDS011;39866;48.638;-2.020;2023-03-17T03:25:50;8.80;;;3.85;;
53959;SDS011;39866;48.638;-2.020;2023-03-17T03:28:15;10.15;;;3.83;;
53959;SDS011;39866;48.638;-2.020;2023-03-17T03:30:41;11.43;;;4.13;;
53959;SDS011;39866;48.638;-2.020;2023-03-17T03:33:08;10.50;;;4.38;;
53959;SDS011;39866;48.638;-2.020;2023-03-17T03:35:35;9.70;;;4.30;;
53959;SDS011;39866;48.638;-2.020;2023-03-17T03:38:00;10.15;;;4.18;;
53959;SDS011;39866;48.638;-2.020;2023-03-17T03:40:26;9.23;;;3.58;;
53959;SDS011;39866;48.638;-2.020;2023-03-17T03:42:51;8.10;;;3.33;;
53959;SDS011;39866;48.638;-2.020;2023-03-17T03:45:17;9.18;;;3.60;;
53959;SDS011;39866;48.638;-2.020;2023-03-17T03:47:42;8.95;;;3.35;;
53959;SDS011;39866;48.638;-2.020;2023-03-17T03:50:08;10.15;;;4.10;;
53959;SDS011;39866;48.638;-2.020;2023-03-17T03:52:34;8.57;;;3.78;;
53959;SDS011;39866;48.638;-2.020;2023-03-17T03:55:00;10.23;;;3.83;;
53959;SDS011;39866;48.638;-2.020;2023-03-17T03:57:25;9.38;;;3.60;;
53959;SDS011;39866;48.638;-2.020;2023-03-17T03:59:51;8.82;;;3.60;;
53959;SDS011;39866;48.638;-2.020;2023-03-17T04:02:16;8.75;;;4.10;;
53959;SDS011;39866;48.638;-2.020;2023-03-17T04:04:42;13.18;;;3.97;;
53959;SDS011;39866;48.638;-2.020;2023-03-17T04:07:08;8.80;;;3.50;;
53959;SDS011;39866;48.638;-2.020;2023-03-17T04:09:33;10.00;;;3.10;;
53959;SDS011;39866;48.638;-2.020;2023-03-17T04:12:00;9.68;;;3.80;;
53959;SDS011;39866;48.638;-2.020;2023-03-17T04:14:25;7.05;;;3.20;;
53959;SDS011;39866;48.638;-2.020;2023-03-17T04:16:50;8.32;;;3.65;;
53959;SDS011;39866;48.638;-2.020;2023-03-17T04:19:16;10.75;;;3.75;;
53959;SDS011;39866;48.638;-2.020;2023-03-17T04:21:41;9.82;;;3.67;;
53959;SDS011;39866;48.638;-2.020;2023-03-17T04:24:07;11.25;;;3.70;;
53959;SDS011;39866;48.638;-2.020;2023-03-17T04:26:32;7.93;;;3.55;;
53959;SDS011;39866;48.638;-2.020;2023-03-17T04:28:58;8.45;;;3.17;;
53959;SDS011;39866;48.638;-2.020;2023-03-17T04:31:23;8.15;;;3.45;;
53959;SDS011;39866;48.638;-2.020;2023-03-17T04:33:49;5.93;;;3.00;;
53959;SDS011;39866;48.638;-2.020;2023-03-17T04:36:18;7.10;;;2.95;;
53959;SDS011;39866;48.638;-2.020;2023-03-17T04:38:45;9.02;;;3.17;;
53959;SDS011;39866;48.638;-2.020;2023-03-17T04:41:11;9.10;;;3.20;;
53959;SDS011;39866;48.638;-2.020;2023-03-17T04:43:37;7.32;;;3.22;;
53959;SDS011;39866;48.638;-2.020;2023-03-17T04:46:03;8.82;;;3.45;;
53959;SDS011;39866;48.638;-2.020;2023-03-17T04:48:28;6.75;;;3.60;;
53959;SDS011;39866;48.638;-2.020;2023-03-17T04:50:53;8.90;;;3.40;;
53959;SDS011;39866;48.638;-2.020;2023-03-17T04:53:19;6.88;;;3.00;;
53959;SDS011;39866;48.638;-2.020;2023-03-17T04:55:44;11.38;;;3.40;;
53959;SDS011;39866;48.638;-2.020;2023-03-17T04:58:10;8.65;;;3.35;;
53959;SDS011;39866;48.638;-2.020;2023-03-17T05:00:35;8.38;;;3.38;;
53959;SDS011;39866;48.638;-2.020;2023-03-17T05:03:03;9.10;;;3.60;;
53959;SDS011;39866;48.638;-2.020;2023-03-17T05:05:32;7.57;;;2.97;;
53959;SDS011;39866;48.638;-2.020;2023-03-17T05:07:57;7.43;;;3.30;;
53959;SDS011;39866;48.638;-2.020;2023-03-17T05:10:23;8.70;;;3.40;;
53959;SDS011;39866;48.638;-2.020;2023-03-17T05:12:48;7.07;;;3.25;;
53959;SDS011;39866;48.638;-2.020;2023-03-17T05:15:14;7.88;;;3.33;;
53959;SDS011;39866;48.638;-2.020;2023-03-17T05:17:39;6.65;;;3.20;;
53959;SDS011;39866;48.638;-2.020;2023-03-17T05:20:05;8.15;;;3.35;;
53959;SDS011;39866;48.638;-2.020;2023-03-17T05:22:32;7.70;;;3.70;;
53959;SDS011;39866;48.638;-2.020;2023-03-17T05:24:58;12.40;;;3.78;;
53959;SDS011;39866;48.638;-2.020;2023-03-17T05:27:24;8.88;;;3.40;;
53959;SDS011;39866;48.638;-2.020;2023-03-17T05:29:50;7.00;;;3.25;;
53959;SDS011;39866;48.638;-2.020;2023-03-17T05:32:15;8.55;;;3.63;;
53959;SDS011;39866;48.638;-2.020;2023-03-17T05:34:41;7.90;;;3.40;;
53959;SDS011;39866;48.638;-2.020;2023-03-17T05:37:06;6.93;;;3.38;;
53959;SDS011;39866;48.638;-2.020;2023-03-17T05:39:32;7.40;;;3.70;;
53959;SDS011;39866;48.638;-2.020;2023-03-17T05:41:57;10.73;;;3.42;;
53959;SDS011;39866;48.638;-2.020;2023-03-17T05:44:22;7.13;;;3.97;;
53959;SDS011;39866;48.638;-2.020;2023-03-17T05:46:48;6.97;;;3.33;;
53959;SDS011;39866;48.638;-2.020;2023-03-17T05:49:14;10.52;;;3.60;;
53959;SDS011;39866;48.638;-2.020;2023-03-17T05:51:40;9.57;;;3.40;;
53959;SDS011;39866;48.638;-2.020;2023-03-17T05:54:06;12.23;;;4.50;;
53959;SDS011;39866;48.638;-2.020;2023-03-17T05:56:32;10.85;;;4.15;;
53959;SDS011;39866;48.638;-2.020;2023-03-17T05:58:58;12.57;;;4.47;;
53959;SDS011;39866;48.638;-2.020;2023-03-17T06:01:25;9.00;;;3.90;;
53959;SDS011;39866;48.638;-2.020;2023-03-17T06:03:51;12.05;;;4.63;;
53959;SDS011;39866;48.638;-2.020;2023-03-17T06:06:16;13.20;;;4.72;;
53959;SDS011;39866;48.638;-2.020;2023-03-17T06:08:42;12.13;;;4.57;;
53959;SDS011;39866;48.638;-2.020;2023-03-17T06:11:08;9.63;;;4.38;;
53959;SDS011;39866;48.638;-2.020;2023-03-17T06:13:33;10.55;;;4.55;;
53959;SDS011;39866;48.638;-2.020;2023-03-17T06:15:59;10.63;;;4.55;;
53959;SDS011;39866;48.638;-2.020;2023-03-17T06:18:24;11.48;;;4.63;;
53959;SDS011;39866;48.638;-2.020;2023-03-17T06:20:49;11.27;;;4.55;;
53959;SDS011;39866;48.638;-2.020;2023-03-17T06:23:15;13.25;;;4.43;;
53959;SDS011;39866;48.638;-2.020;2023-03-17T06:25:41;8.50;;;4.20;;
53959;SDS011;39866;48.638;-2.020;2023-03-17T06:28:06;9.13;;;4.88;;
53959;SDS011;39866;48.638;-2.020;2023-03-17T06:30:32;13.13;;;4.78;;
53959;SDS011;39866;48.638;-2.020;2023-03-17T06:32:59;14.63;;;5.07;;
53959;SDS011;39866;48.638;-2.020;2023-03-17T06:35:25;11.48;;;5.07;;
53959;SDS011;39866;48.638;-2.020;2023-03-17T06:37:50;12.30;;;4.45;;
53959;SDS011;39866;48.638;-2.020;2023-03-17T06:40:16;12.57;;;4.53;;
53959;SDS011;39866;48.638;-2.020;2023-03-17T06:42:41;8.95;;;4.00;;
53959;SDS011;39866;48.638;-2.020;2023-03-17T06:45:07;12.38;;;4.50;;
53959;SDS011;39866;48.638;-2.020;2023-03-17T06:47:33;10.80;;;4.70;;
53959;SDS011;39866;48.638;-2.020;2023-03-17T06:50:01;9.77;;;4.55;;
53959;SDS011;39866;48.638;-2.020;2023-03-17T06:52:27;9.98;;;4.63;;
53959;SDS011;39866;48.638;-2.020;2023-03-17T06:54:53;15.20;;;5.82;;
53959;SDS011;39866;48.638;-2.020;2023-03-17T06:57:18;10.90;;;4.82;;
53959;SDS011;39866;48.638;-2.020;2023-03-17T06:59:43;9.40;;;4.88;;
53959;SDS011;39866;48.638;-2.020;2023-03-17T07:02:10;10.10;;;4.95;;
53959;SDS011;39866;48.638;-2.020;2023-03-17T07:04:36;9.43;;;4.60;;
53959;SDS011;39866;48.638;-2.020;2023-03-17T07:07:02;9.07;;;5.07;;
53959;SDS011;39866;48.638;-2.020;2023-03-17T07:09:29;14.90;;;5.10;;
53959;SDS011;39866;48.638;-2.020;2023-03-17T07:11:57;10.20;;;4.60;;
53959;SDS011;39866;48.638;-2.020;2023-03-17T07:14:22;12.77;;;5.07;;
53959;SDS011;39866;48.638;-2.020;2023-03-17T07:16:48;9.65;;;4.85;;
53959;SDS011;39866;48.638;-2.020;2023-03-17T07:19:14;12.23;;;5.35;;
53959;SDS011;39866;48.638;-2.020;2023-03-17T07:21:40;12.77;;;5.38;;
53959;SDS011;39866;48.638;-2.020;2023-03-17T07:24:05;9.15;;;4.63;;
53959;SDS011;39866;48.638;-2.020;2023-03-17T07:26:31;12.50;;;5.30;;
53959;SDS011;39866;48.638;-2.020;2023-03-17T07:28:56;11.38;;;5.15;;
53959;SDS011;39866;48.638;-2.020;2023-03-17T07:31:24;12.77;;;5.03;;
53959;SDS011;39866;48.638;-2.020;2023-03-17T07:33:50;11.07;;;5.20;;
53959;SDS011;39866;48.638;-2.020;2023-03-17T07:36:16;12.70;;;6.40;;
53959;SDS011;39866;48.638;-2.020;2023-03-17T07:38:41;11.25;;;5.40;;
53959;SDS011;39866;48.638;-2.020;2023-03-17T07:41:07;11.98;;;5.45;;
53959;SDS011;39866;48.638;-2.020;2023-03-17T07:43:35;11.07;;;5.30;;
53959;SDS011;39866;48.638;-2.020;2023-03-17T07:46:01;12.77;;;4.80;;
53959;SDS011;39866;48.638;-2.020;2023-03-17T07:48:27;12.95;;;5.15;;
53959;SDS011;39866;48.638;-2.020;2023-03-17T07:50:52;11.23;;;4.72;;
53959;SDS011;39866;48.638;-2.020;2023-03-17T07:53:17;12.25;;;4.80;;
53959;SDS011;39866;48.638;-2.020;2023-03-17T07:55:43;17.33;;;6.72;;
53959;SDS011;39866;48.638;-2.020;2023-03-17T07:58:08;11.27;;;5.22;;
53959;SDS011;39866;48.638;-2.020;2023-03-17T08:00:34;12.38;;;5.22;;
53959;SDS011;39866;48.638;-2.020;2023-03-17T08:03:00;14.65;;;4.95;;
53959;SDS011;39866;48.638;-2.020;2023-03-17T08:05:26;10.95;;;4.45;;
53959;SDS011;39866;48.638;-2.020;2023-03-17T08:07:51;8.82;;;4.32;;
53959;SDS011;39866;48.638;-2.020;2023-03-17T08:10:17;10.63;;;5.15;;
53959;SDS011;39866;48.638;-2.020;2023-03-17T08:12:43;14.88;;;4.93;;
53959;SDS011;39866;48.638;-2.020;2023-03-17T08:15:08;13.07;;;5.28;;
53959;SDS011;39866;48.638;-2.020;2023-03-17T08:17:34;10.15;;;5.05;;
53959;SDS011;39866;48.638;-2.020;2023-03-17T08:20:00;8.60;;;4.32;;
53959;SDS011;39866;48.638;-2.020;2023-03-17T08:22:26;9.90;;;5.20;;
53959;SDS011;39866;48.638;-2.020;2023-03-17T08:24:52;9.90;;;5.03;;
53959;SDS011;39866;48.638;-2.020;2023-03-17T08:27:17;11.07;;;5.03;;
53959;SDS011;39866;48.638;-2.020;2023-03-17T08:29:45;9.95;;;5.10;;
53959;SDS011;39866;48.638;-2.020;2023-03-17T08:32:11;10.23;;;4.90;;
53959;SDS011;39866;48.638;-2.020;2023-03-17T08:34:37;12.45;;;5.30;;
53959;SDS011;39866;48.638;-2.020;2023-03-17T08:37:02;8.93;;;4.82;;
53959;SDS011;39866;48.638;-2.020;2023-03-17T08:39:28;10.13;;;5.18;;
53959;SDS011;39866;48.638;-2.020;2023-03-17T08:41:54;9.82;;;4.07;;
53959;SDS011;39866;48.638;-2.020;2023-03-17T08:44:20;6.93;;;4.18;;
53959;SDS011;39866;48.638;-2.020;2023-03-17T08:46:46;9.88;;;4.68;;
53959;SDS011;39866;48.638;-2.020;2023-03-17T08:49:13;10.05;;;4.63;;
53959;SDS011;39866;48.638;-2.020;2023-03-17T08:51:39;13.15;;;4.60;;
53959;SDS011;39866;48.638;-2.020;2023-03-17T08:54:04;10.80;;;4.50;;
53959;SDS011;39866;48.638;-2.020;2023-03-17T08:56:31;12.07;;;4.63;;
53959;SDS011;39866;48.638;-2.020;2023-03-17T08:58:57;9.95;;;4.80;;
53959;SDS011;39866;48.638;-2.020;2023-03-17T09:01:23;9.88;;;4.97;;
53959;SDS011;39866;48.638;-2.020;2023-03-17T09:03:49;7.80;;;4.20;;
53959;SDS011;39866;48.638;-2.020;2023-03-17T09:06:17;8.35;;;4.68;;
53959;SDS011;39866;48.638;-2.020;2023-03-17T09:08:42;10.10;;;4.88;;
53959;SDS011;39866;48.638;-2.020;2023-03-17T09:11:14;11.63;;;5.28;;
53959;SDS011;39866;48.638;-2.020;2023-03-17T09:13:44;15.85;;;7.20;;
53959;SDS011;39866;48.638;-2.020;2023-03-17T09:16:11;10.65;;;4.70;;
53959;SDS011;39866;48.638;-2.020;2023-03-17T09:18:37;15.75;;;5.97;;
53959;SDS011;39866;48.638;-2.020;2023-03-17T09:21:03;10.48;;;4.97;;
53959;SDS011;39866;48.638;-2.020;2023-03-17T09:23:29;10.60;;;4.97;;
53959;SDS011;39866;48.638;-2.020;2023-03-17T09:25:55;13.15;;;6.30;;
53959;SDS011;39866;48.638;-2.020;2023-03-17T09:28:21;10.82;;;5.00;;
53959;SDS011;39866;48.638;-2.020;2023-03-17T09:30:47;15.13;;;5.10;;
53959;SDS011;39866;48.638;-2.020;2023-03-17T09:33:13;9.68;;;4.60;;
53959;SDS011;39866;48.638;-2.020;2023-03-17T09:35:39;9.80;;;5.13;;
53959;SDS011;39866;48.638;-2.020;2023-03-17T09:38:05;9.63;;;4.80;;
53959;SDS011;39866;48.638;-2.020;2023-03-17T09:40:35;10.18;;;4.70;;
53959;SDS011;39866;48.638;-2.020;2023-03-17T09:43:06;10.25;;;4.35;;
53959;SDS011;39866;48.638;-2.020;2023-03-17T09:45:44;12.25;;;5.05;;
53959;SDS011;39866;48.638;-2.020;2023-03-17T09:53:20;10.07;;;4.68;;
53959;SDS011;39866;48.638;-2.020;2023-03-17T09:55:51;11.50;;;4.70;;
53959;SDS011;39866;48.638;-2.020;2023-03-17T09:58:25;15.40;;;5.40;;
53959;SDS011;39866;48.638;-2.020;2023-03-17T10:00:55;11.55;;;4.85;;
53959;SDS011;39866;48.638;-2.020;2023-03-17T10:03:20;15.18;;;5.20;;
53959;SDS011;39866;48.638;-2.020;2023-03-17T10:05:48;11.52;;;5.20;;
53959;SDS011;39866;48.638;-2.020;2023-03-17T10:08:15;11.07;;;4.95;;
53959;SDS011;39866;48.638;-2.020;2023-03-17T10:10:52;12.38;;;5.30;;
53959;SDS011;39866;48.638;-2.020;2023-03-17T10:19:17;8.80;;;4.70;;
53959;SDS011;39866;48.638;-2.020;2023-03-17T10:22:12;8.57;;;4.60;;
53959;SDS011;39866;48.638;-2.020;2023-03-17T10:24:45;12.57;;;5.32;;
53959;SDS011;39866;48.638;-2.020;2023-03-17T10:27:14;9.45;;;4.20;;
53959;SDS011;39866;48.638;-2.020;2023-03-17T10:29:41;9.90;;;4.28;;
53959;SDS011;39866;48.638;-2.020;2023-03-17T10:32:08;8.82;;;3.90;;
53959;SDS011;39866;48.638;-2.020;2023-03-17T10:34:37;7.15;;;3.65;;
53959;SDS011;39866;48.638;-2.020;2023-03-17T10:37:07;6.72;;;3.67;;
53959;SDS011;39866;48.638;-2.020;2023-03-17T10:39:41;7.18;;;3.92;;
53959;SDS011;39866;48.638;-2.020;2023-03-17T10:42:11;14.87;;;5.00;;
53959;SDS011;39866;48.638;-2.020;2023-03-17T10:44:46;8.38;;;3.45;;
53959;SDS011;39866;48.638;-2.020;2023-03-17T10:47:32;7.82;;;3.88;;
53959;SDS011;39866;48.638;-2.020;2023-03-17T10:50:10;9.82;;;3.50;;
53959;SDS011;39866;48.638;-2.020;2023-03-17T10:52:45;7.85;;;3.90;;
53959;SDS011;39866;48.638;-2.020;2023-03-17T10:55:17;7.65;;;3.58;;
53959;SDS011;39866;48.638;-2.020;2023-03-17T10:58:19;10.55;;;5.85;;
53959;SDS011;39866;48.638;-2.020;2023-03-17T11:00:49;12.68;;;3.97;;
53959;SDS011;39866;48.638;-2.020;2023-03-17T11:03:22;8.95;;;4.18;;
53959;SDS011;39866;48.638;-2.020;2023-03-17T11:06:02;11.85;;;6.13;;
53959;SDS011;39866;48.638;-2.020;2023-03-17T11:08:30;6.63;;;2.95;;
53959;SDS011;39866;48.638;-2.020;2023-03-17T11:10:58;9.20;;;3.28;;
53959;SDS011;39866;48.638;-2.020;2023-03-17T11:13:27;6.22;;;3.00;;
53959;SDS011;39866;48.638;-2.020;2023-03-17T11:16:03;10.70;;;3.03;;
53959;SDS011;39866;48.638;-2.020;2023-03-17T11:18:34;7.75;;;3.10;;
53959;SDS011;39866;48.638;-2.020;2023-03-17T11:23:43;6.90;;;2.50;;
53959;SDS011;39866;48.638;-2.020;2023-03-17T11:34:57;10.27;;;3.00;;
53959;SDS011;39866;48.638;-2.020;2023-03-17T11:43:12;8.45;;;2.88;;
53959;SDS011;39866;48.638;-2.020;2023-03-17T11:53:57;8.30;;;3.00;;
53959;SDS011;39866;48.638;-2.020;2023-03-17T11:56:44;8.70;;;3.10;;
53959;SDS011;39866;48.638;-2.020;2023-03-17T11:59:25;9.48;;;2.92;;
53959;SDS011;39866;48.638;-2.020;2023-03-17T12:02:00;7.40;;;3.20;;
53959;SDS011;39866;48.638;-2.020;2023-03-17T12:04:51;9.07;;;3.17;;
53959;SDS011;39866;48.638;-2.020;2023-03-17T12:07:25;10.60;;;3.60;;
53959;SDS011;39866;48.638;-2.020;2023-03-17T12:10:07;12.50;;;3.53;;
53959;SDS011;39866;48.638;-2.020;2023-03-17T12:12:41;10.18;;;2.80;;
53959;SDS011;39866;48.638;-2.020;2023-03-17T12:15:13;10.30;;;3.33;;
53959;SDS011;39866;48.638;-2.020;2023-03-17T12:17:51;7.18;;;2.63;;
53959;SDS011;39866;48.638;-2.020;2023-03-17T12:23:16;9.70;;;2.75;;
53959;SDS011;39866;48.638;-2.020;2023-03-17T12:26:07;10.32;;;2.40;;
53959;SDS011;39866;48.638;-2.020;2023-03-17T12:28:45;9.18;;;2.53;;
53959;SDS011;39866;48.638;-2.020;2023-03-17T12:31:22;9.25;;;2.70;;
53959;SDS011;39866;48.638;-2.020;2023-03-17T12:34:09;8.00;;;2.80;;
53959;SDS011;39866;48.638;-2.020;2023-03-17T12:36:52;9.05;;;2.70;;
53959;SDS011;39866;48.638;-2.020;2023-03-17T12:39:20;8.75;;;3.08;;
53959;SDS011;39866;48.638;-2.020;2023-03-17T12:42:03;8.05;;;4.03;;
53959;SDS011;39866;48.638;-2.020;2023-03-17T12:55:34;5.83;;;2.30;;
53959;SDS011;39866;48.638;-2.020;2023-03-17T12:58:04;7.18;;;2.67;;
53959;SDS011;39866;48.638;-2.020;2023-03-17T13:00:47;7.60;;;2.60;;
53959;SDS011;39866;48.638;-2.020;2023-03-17T13:03:27;10.07;;;2.53;;
53959;SDS011;39866;48.638;-2.020;2023-03-17T13:06:03;20.63;;;5.40;;
53959;SDS011;39866;48.638;-2.020;2023-03-17T13:08:41;11.15;;;2.40;;
53959;SDS011;39866;48.638;-2.020;2023-03-17T13:11:14;8.18;;;5.00;;
53959;SDS011;39866;48.638;-2.020;2023-03-17T13:16:29;7.50;;;2.70;;
53959;SDS011;39866;48.638;-2.020;2023-03-17T13:21:31;7.65;;;2.50;;
53959;SDS011;39866;48.638;-2.020;2023-03-17T13:24:19;6.85;;;2.13;;
53959;SDS011;39866;48.638;-2.020;2023-03-17T13:26:58;8.25;;;2.60;;
53959;SDS011;39866;48.638;-2.020;2023-03-17T13:32:28;30.35;;;4.00;;
53959;SDS011;39866;48.638;-2.020;2023-03-17T13:46:18;12.57;;;3.10;;
53959;SDS011;39866;48.638;-2.020;2023-03-17T13:53:41;13.82;;;2.80;;
53959;SDS011;39866;48.638;-2.020;2023-03-17T13:56:15;10.40;;;2.85;;
53959;SDS011;39866;48.638;-2.020;2023-03-17T14:01:27;8.05;;;2.20;;
53959;SDS011;39866;48.638;-2.020;2023-03-17T14:03:56;7.63;;;2.53;;
53959;SDS011;39866;48.638;-2.020;2023-03-17T14:06:26;5.22;;;2.03;;
53959;SDS011;39866;48.638;-2.020;2023-03-17T14:09:00;6.63;;;2.30;;
53959;SDS011;39866;48.638;-2.020;2023-03-17T14:11:33;4.78;;;2.10;;
53959;SDS011;39866;48.638;-2.020;2023-03-17T14:16:44;5.82;;;2.00;;
53959;SDS011;39866;48.638;-2.020;2023-03-17T14:19:19;7.25;;;1.90;;
53959;SDS011;39866;48.638;-2.020;2023-03-17T14:21:45;4.97;;;2.10;;
53959;SDS011;39866;48.638;-2.020;2023-03-17T14:24:16;5.55;;;2.00;;
53959;SDS011;39866;48.638;-2.020;2023-03-17T14:29:13;4.63;;;2.22;;
53959;SDS011;39866;48.638;-2.020;2023-03-17T14:31:40;5.32;;;2.50;;
53959;SDS011;39866;48.638;-2.020;2023-03-17T14:34:11;6.97;;;2.30;;
53959;SDS011;39866;48.638;-2.020;2023-03-17T14:36:40;6.90;;;2.20;;
53959;SDS011;39866;48.638;-2.020;2023-03-17T14:39:06;7.93;;;2.25;;
53959;SDS011;39866;48.638;-2.020;2023-03-17T14:41:42;9.23;;;2.80;;
53959;SDS011;39866;48.638;-2.020;2023-03-17T14:44:07;8.20;;;2.70;;
53959;SDS011;39866;48.638;-2.020;2023-03-17T14:46:34;5.97;;;2.28;;
53959;SDS011;39866;48.638;-2.020;2023-03-17T14:49:03;7.32;;;2.30;;
53959;SDS011;39866;48.638;-2.020;2023-03-17T14:51:39;7.70;;;2.35;;
53959;SDS011;39866;48.638;-2.020;2023-03-17T14:54:13;10.43;;;2.60;;
53959;SDS011;39866;48.638;-2.020;2023-03-17T14:56:54;11.05;;;2.70;;
53959;SDS011;39866;48.638;-2.020;2023-03-17T14:59:36;7.65;;;2.20;;
53959;SDS011;39866;48.638;-2.020;2023-03-17T15:02:16;7.25;;;2.63;;
53959;SDS011;39866;48.638;-2.020;2023-03-17T15:04:54;10.65;;;2.58;;
53959;SDS011;39866;48.638;-2.020;2023-03-17T15:07:29;7.85;;;2.72;;
53959;SDS011;39866;48.638;-2.020;2023-03-17T15:09:59;6.25;;;2.40;;
53959;SDS011;39866;48.638;-2.020;2023-03-17T15:12:28;7.65;;;2.45;;
53959;SDS011;39866;48.638;-2.020;2023-03-17T15:14:56;9.00;;;2.90;;
53959;SDS011;39866;48.638;-2.020;2023-03-17T15:17:35;10.13;;;3.20;;
53959;SDS011;39866;48.638;-2.020;2023-03-17T15:20:02;8.68;;;3.03;;
53959;SDS011;39866;48.638;-2.020;2023-03-17T15:25:01;6.65;;;2.70;;
53959;SDS011;39866;48.638;-2.020;2023-03-17T15:27:40;11.32;;;3.40;;
53959;SDS011;39866;48.638;-2.020;2023-03-17T15:30:06;9.35;;;3.15;;
53959;SDS011;39866;48.638;-2.020;2023-03-17T15:32:32;6.57;;;2.50;;
53959;SDS011;39866;48.638;-2.020;2023-03-17T15:34:58;7.95;;;2.50;;
53959;SDS011;39866;48.638;-2.020;2023-03-17T15:37:24;6.05;;;2.35;;
53959;SDS011;39866;48.638;-2.020;2023-03-17T15:39:52;13.95;;;2.88;;
53959;SDS011;39866;48.638;-2.020;2023-03-17T15:42:20;10.40;;;2.40;;
53959;SDS011;39866;48.638;-2.020;2023-03-17T15:44:48;7.28;;;2.70;;
53959;SDS011;39866;48.638;-2.020;2023-03-17T15:47:15;9.82;;;3.03;;
53959;SDS011;39866;48.638;-2.020;2023-03-17T15:49:45;9.10;;;3.30;;
53959;SDS011;39866;48.638;-2.020;2023-03-17T15:52:13;7.68;;;2.80;;
53959;SDS011;39866;48.638;-2.020;2023-03-17T15:54:41;7.18;;;2.53;;
53959;SDS011;39866;48.638;-2.020;2023-03-17T15:57:07;6.22;;;2.58;;
53959;SDS011;39866;48.638;-2.020;2023-03-17T15:59:35;6.93;;;2.78;;
53959;SDS011;39866;48.638;-2.020;2023-03-17T16:02:01;8.10;;;2.92;;
53959;SDS011;39866;48.638;-2.020;2023-03-17T16:04:27;8.20;;;2.80;;
53959;SDS011;39866;48.638;-2.020;2023-03-17T16:06:52;8.82;;;2.92;;